Time;durP1;ratioP1;P1;durP2;ratioP2;P2;SDS_P1;SDS_P2;PMS_P1;PMS_P2;Temp;Humidity;BMP_temperature;BMP_pressure;BME280_temperature;BME280_humidity;BME280_pressure;Samples;Min_cycle;Max_cycle;Signal;HPM_P1;HPM_P2
2021/11/02 00:01:41;;;;;;;32.85;22.95;;;;;;;8.05;77.48;98352.95;1681780;84;21075;-71
2021/11/02 00:04:09;;;;;;;40.58;27.62;;;;;;;7.95;77.57;98357.01;1650200;85;20942;-71
2021/11/02 00:06:36;;;;;;;32.98;21.33;;;;;;;7.88;77.63;98360.91;1657777;85;20930;-71
2021/11/02 00:09:09;;;;;;;32.80;22.13;;;;;;;7.80;77.64;98363.47;1662634;85;21647;-71
2021/11/02 00:11:34;;;;;;;32.28;22.48;;;;;;;7.73;77.65;98371.27;1704947;83;21736;-70
2021/11/02 00:14:04;;;;;;;32.10;22.32;;;;;;;7.59;77.57;98366.02;1706809;83;23486;-70
2021/11/02 00:16:31;;;;;;;29.57;22.05;;;;;;;7.48;77.65;98362.72;1694030;83;20906;-71
2021/11/02 00:19:01;;;;;;;29.95;22.62;;;;;;;7.37;77.73;98359.42;1712747;82;20870;-71
2021/11/02 00:21:30;;;;;;;42.90;28.00;;;;;;;7.28;77.85;98362.55;1705116;83;21533;-71
2021/11/02 00:24:08;;;;;;;29.60;22.52;;;;;;;7.22;77.91;98361.56;1681996;84;21058;-71
2021/11/02 00:26:24;;;;;;;44.55;28.50;;;;;;;7.17;78.03;98359.70;1705707;83;20883;-71
2021/11/02 00:28:51;;;;;;;43.05;27.85;;;;;;;7.13;78.02;98358.18;1714870;82;20922;-71
2021/11/02 00:31:18;;;;;;;43.83;27.73;;;;;;;7.09;78.04;98357.52;1702405;83;20943;-71
2021/11/02 00:33:44;;;;;;;43.98;28.52;;;;;;;7.06;78.05;98349.08;1705767;82;20926;-71
2021/11/02 00:36:11;;;;;;;39.80;27.15;;;;;;;7.02;78.04;98355.34;1706029;82;21128;-71
2021/11/02 00:38:38;;;;;;;36.70;26.48;;;;;;;6.95;78.05;98350.95;1683457;84;21474;-71
2021/11/02 00:41:11;;;;;;;41.70;26.95;;;;;;;6.84;77.94;98345.04;1712332;82;20888;-71
2021/11/02 00:43:38;;;;;;;45.95;27.95;;;;;;;6.73;77.95;98349.97;1682054;84;21032;-71
2021/11/02 00:46:05;;;;;;;46.10;28.53;;;;;;;6.61;78.06;98335.91;1706755;83;20982;-71
2021/11/02 00:48:33;;;;;;;40.00;26.80;;;;;;;6.54;78.16;98333.70;1707965;82;21543;-71
2021/11/02 00:50:59;;;;;;;41.90;27.17;;;;;;;6.47;78.31;98331.45;1707631;82;21956;-71
2021/11/02 00:53:26;;;;;;;39.13;27.27;;;;;;;6.45;78.51;98334.57;1718607;82;20933;-71
2021/11/02 00:55:52;;;;;;;42.53;27.90;;;;;;;6.39;78.42;98330.17;1722408;82;20934;-72
2021/11/02 00:58:22;;;;;;;34.67;25.12;;;;;;;6.31;78.37;98334.45;1719915;82;21048;-74
2021/11/02 01:00:49;;;;;;;41.75;27.73;;;;;;;6.23;78.49;98334.02;1715979;82;21028;-71
2021/11/02 01:03:16;;;;;;;45.23;28.05;;;;;;;6.15;78.61;98337.45;1725217;82;21531;-72
2021/11/02 01:05:42;;;;;;;42.88;29.00;;;;;;;6.11;78.65;98330.77;1725159;82;21466;-72
2021/11/02 01:08:09;;;;;;;43.83;28.12;;;;;;;6.10;78.79;98334.25;1724583;82;20904;-71
2021/11/02 01:10:36;;;;;;;44.40;28.40;;;;;;;6.10;78.87;98329.08;1727267;82;20881;-72
2021/11/02 01:13:03;;;;;;;40.53;27.33;;;;;;;6.12;78.94;98324.66;1719709;82;21229;-71
2021/11/02 01:15:31;;;;;;;39.10;27.13;;;;;;;6.11;78.91;98320.41;1695866;83;20950;-71
2021/11/02 01:17:59;;;;;;;30.35;20.80;;;;;;;6.09;78.99;98310.10;1725130;82;20955;-71
2021/11/02 01:20:26;;;;;;;;;;;;;;;6.05;79.06;98314.61;1730062;82;20894;-72
2021/11/02 01:22:53;;;;;;;41.77;27.52;;;;;;;6.00;79.07;98317.89;1731699;82;20170;-71
2021/11/02 01:25:21;;;;;;;42.88;27.95;;;;;;;5.95;79.02;98316.45;1728066;82;21091;-71
2021/11/02 01:27:49;;;;;;;38.88;27.07;;;;;;;5.91;79.14;98306.68;1720946;82;20969;-71
2021/11/02 01:30:18;;;;;;;39.03;26.62;;;;;;;5.88;79.31;98306.84;1725579;82;33994;-71
2021/11/02 01:32:45;;;;;;;37.70;26.30;;;;;;;5.88;79.39;98306.84;1690694;83;21443;-71
2021/11/02 01:35:13;;;;;;;38.20;26.48;;;;;;;5.86;79.40;98303.48;1720740;82;20974;-71
2021/11/02 01:37:40;;;;;;;34.43;24.75;;;;;;;5.88;79.46;98304.25;1723112;82;20985;-70
2021/11/02 01:40:16;;;;;;;36.13;25.53;;;;;;;5.91;79.48;98306.68;1725592;82;20928;-70
2021/11/02 01:42:40;;;;;;;36.08;26.25;;;;;;;5.92;79.55;98303.16;1727511;82;20989;-70
2021/11/02 01:45:11;;;;;;;32.25;25.00;;;;;;;5.93;79.52;98306.16;1726734;82;20891;-71
2021/11/02 01:47:42;;;;;;;33.65;24.55;;;;;;;5.95;79.63;98299.15;1721812;82;21445;-71
2021/11/02 01:50:10;;;;;;;37.60;25.08;;;;;;;5.96;79.72;98300.81;1725336;82;21184;-70
2021/11/02 01:52:37;;;;;;;37.08;26.10;;;;;;;6.01;79.80;98305.30;1720779;82;20958;-70
2021/11/02 01:55:05;;;;;;;35.10;24.80;;;;;;;6.06;79.81;98292.13;1723399;82;20923;-70
2021/11/02 01:57:32;;;;;;;38.45;25.55;;;;;;;6.11;79.83;98284.13;1717106;82;21471;-71
2021/11/02 01:59:58;;;;;;;33.88;23.87;;;;;;;6.16;79.84;98285.98;1723910;82;21034;-70
2021/11/02 02:02:48;;;;;;;34.75;27.15;;;;;;;6.21;79.88;98290.48;1692026;83;21061;-70
2021/11/02 02:05:23;;;;;;;37.33;25.72;;;;;;;6.23;79.92;98289.95;1716811;82;20917;-71
2021/11/02 02:08:10;;;;;;;34.95;24.67;;;;;;;6.26;79.95;98283.31;1689658;83;20932;-70
2021/11/02 02:10:58;;;;;;;40.92;24.87;;;;;;;6.28;79.94;98276.30;1718702;82;20942;-71
2021/11/02 02:13:54;;;;;;;36.77;25.35;;;;;;;6.30;79.95;98271.84;1720202;82;21178;-70
2021/11/02 02:16:29;;;;;;;37.35;26.48;;;;;;;6.31;79.90;98270.95;1711235;82;21031;-71
2021/11/02 02:19:20;;;;;;;38.20;25.75;;;;;;;6.28;79.93;98265.92;1710896;82;21129;-71
2021/11/02 02:22:14;;;;;;;36.08;25.55;;;;;;;6.25;79.92;98268.69;1712979;82;20910;-70
2021/11/02 02:25:19;;;;;;;35.17;25.60;;;;;;;6.19;79.87;98268.98;1714492;82;21464;-70
2021/11/02 02:28:07;;;;;;;37.73;26.87;;;;;;;6.14;79.88;98255.45;1718248;82;20935;-70
2021/11/02 02:30:54;;;;;;;37.15;26.50;;;;;;;6.08;80.01;98260.94;1716608;82;21041;-71
2021/11/02 02:33:29;;;;;;;41.28;27.13;;;;;;;6.03;80.04;98259.44;1715726;82;20935;-70
2021/11/02 02:35:57;;;;;;;34.88;26.87;;;;;;;6.00;80.07;98262.19;1688564;83;20990;-71
2021/11/02 02:38:25;;;;;;;33.85;26.37;;;;;;;6.01;80.20;98258.67;1714518;82;21464;-71
2021/11/02 02:40:53;;;;;;;36.42;25.05;;;;;;;6.03;80.24;98256.84;1717789;82;20951;-70
2021/11/02 02:43:21;;;;;;;34.73;26.17;;;;;;;6.03;80.27;98253.42;1714565;82;21008;-71
2021/11/02 02:45:49;;;;;;;;;;;;;;;6.06;80.31;98250.66;1719560;82;21035;-71
2021/11/02 02:48:19;;;;;;;39.78;27.37;;;;;;;6.08;80.38;98247.98;1718791;82;20516;-70
2021/11/02 02:50:48;;;;;;;41.20;25.88;;;;;;;6.10;80.32;98248.74;1716978;82;21482;-70
2021/11/02 02:53:15;;;;;;;55.40;26.85;;;;;;;6.11;80.33;98243.49;1719253;82;20974;-71
2021/11/02 02:55:44;;;;;;;48.63;27.40;;;;;;;6.13;80.31;98249.88;1729711;82;21268;-70
2021/11/02 02:58:12;;;;;;;36.23;26.27;;;;;;;6.14;80.38;98245.09;1713504;82;21453;-71
2021/11/02 03:00:42;;;;;;;43.58;25.88;;;;;;;6.16;80.35;98241.50;1723024;82;21462;-71
2021/11/02 03:03:11;;;;;;;33.53;24.45;;;;;;;6.17;80.37;98244.92;1689549;83;20984;-71
2021/11/02 03:05:39;;;;;;;34.80;26.73;;;;;;;6.17;80.41;98238.45;1714412;82;20950;-71
2021/11/02 03:08:06;;;;;;;36.70;25.80;;;;;;;6.19;80.43;98237.88;1719803;82;21872;-71
2021/11/02 03:10:33;;;;;;;33.38;24.32;;;;;;;6.19;80.46;98230.97;1719238;82;20948;-71
2021/11/02 03:13:08;;;;;;;34.55;24.92;;;;;;;6.20;80.48;98220.14;1730063;82;20973;-70
2021/11/02 03:48:57;;;;;;;43.85;30.15;;;;;;;4.96;80.53;98225.96;1684220;83;21048;-70
2021/11/02 03:52:14;;;;;;;;;;;;;;;4.84;80.59;98226.53;1688384;83;21501;-70
2021/11/02 03:56:59;;;;;;;42.93;29.85;;;;;;;4.71;80.90;98220.66;1686201;83;20951;-70
2021/11/02 03:59:35;;;;;;;40.35;29.60;;;;;;;4.65;80.93;98208.46;1685578;83;21046;-70
2021/11/02 04:43:21;;;;;;;42.17;29.20;;;;;;;4.05;81.68;98198.31;1728114;82;21126;-70
2021/11/02 05:07:26;;;;;;;43.87;29.85;;;;;;;3.89;82.12;98168.92;1722444;82;21863;-70
2021/11/02 05:56:06;;;;;;;44.85;32.45;;;;;;;3.61;83.36;98149.49;1715750;82;21526;-72
2021/11/02 05:58:34;;;;;;;49.63;30.65;;;;;;;3.65;83.26;98149.76;1712695;82;20994;-73
2021/11/02 06:01:14;;;;;;;49.55;33.15;;;;;;;3.70;83.35;98146.52;1718024;82;20954;-71
2021/11/02 06:03:49;;;;;;;42.45;32.40;;;;;;;3.75;83.34;98147.16;1718234;82;21072;-71
2021/11/02 06:09:17;;;;;;;51.95;32.63;;;;;;;3.88;83.62;98146.59;1719732;82;20984;-71
2021/11/02 06:29:21;;;;;;;48.23;31.82;;;;;;;4.16;84.04;98147.00;1721451;82;20973;-69
2021/11/02 06:31:59;;;;;;;44.67;33.25;;;;;;;4.19;84.09;98141.69;1720358;82;21039;-72
2021/11/02 06:48:16;;;;;;;47.48;32.20;;;;;;;4.44;84.20;98140.55;1718056;82;21057;-69
2021/11/02 06:53:59;;;;;;;45.38;29.55;;;;;;;4.53;84.40;98141.39;1717208;82;21513;-70
2021/11/02 07:19:55;;;;;;;55.38;36.75;;;;;;;4.61;84.90;98144.44;1687552;83;20956;-69
2021/11/02 07:28:08;;;;;;;61.25;32.33;;;;;;;4.68;84.63;98144.55;1713805;82;21076;-70
2021/11/02 08:49:25;;;;;;;43.08;29.63;;;;;;;6.46;83.87;98088.62;1707711;82;20929;-67
2021/11/02 08:52:03;;;;;;;40.85;29.80;;;;;;;6.40;83.82;98086.38;1685264;82;20926;-67
2021/11/02 08:54:36;;;;;;;44.98;28.83;;;;;;;6.35;83.80;98090.15;1720985;82;21064;-67
2021/11/02 08:57:03;;;;;;;43.83;30.23;;;;;;;6.33;83.86;98094.58;1707331;82;20962;-68
2021/11/02 08:59:34;;;;;;;47.13;29.77;;;;;;;6.31;83.80;98086.91;1705279;82;20943;-67
2021/11/02 09:02:06;;;;;;;45.78;30.25;;;;;;;6.27;83.83;98081.50;1685810;84;20943;-67
2021/11/02 09:04:34;;;;;;;43.25;29.92;;;;;;;6.28;83.94;98087.08;1687369;84;20953;-66
2021/11/02 09:07:05;;;;;;;38.28;29.07;;;;;;;6.31;83.92;98084.31;1685456;84;21509;-67
2021/11/02 09:09:40;;;;;;;45.92;33.08;;;;;;;6.33;83.89;98079.89;1686713;84;20998;-66
2021/11/02 09:12:06;;;;;;;52.35;33.73;;;;;;;6.33;83.80;98077.30;1693516;84;20949;-66
2021/11/02 09:14:40;;;;;;;40.03;28.05;;;;;;;6.30;83.81;98076.61;1681235;84;21400;-67
2021/11/02 09:17:12;;;;;;;53.38;38.40;;;;;;;6.30;83.93;98080.03;1688733;84;20894;-67
2021/11/02 09:19:39;;;;;;;119.80;72.45;;;;;;;6.32;83.89;98082.55;1704711;82;21752;-65
2021/11/02 09:22:10;;;;;;;110.65;68.10;;;;;;;6.31;83.96;98081.72;1708541;82;28546;-65
2021/11/02 09:24:42;;;;;;;116.35;72.32;;;;;;;6.34;84.01;98088.02;1685174;84;21506;-65
2021/11/02 09:27:11;;;;;;;101.72;57.95;;;;;;;6.31;83.90;98083.02;1706809;83;20955;-65
2021/11/02 09:29:38;;;;;;;110.65;61.60;;;;;;;6.31;83.99;98076.53;1712087;82;21588;-65
2021/11/02 09:32:08;;;;;;;212.53;109.78;;;;;;;6.29;83.97;98077.07;1711724;82;21059;-65
2021/11/02 09:34:36;;;;;;;221.47;101.42;;;;;;;6.27;84.00;98077.61;1705380;82;20930;-64
2021/11/02 09:37:28;;;;;;;415.28;200.47;;;;;;;6.22;83.95;98078.35;1705693;82;21006;-64
2021/11/02 09:40:10;;;;;;;260.32;155.75;;;;;;;6.20;84.06;98073.70;1683558;84;20966;-65
2021/11/02 09:43:11;;;;;;;119.60;78.45;;;;;;;6.20;84.18;98077.12;1706925;83;20882;-66
2021/11/02 09:46:18;;;;;;;48.75;36.15;;;;;;;6.21;84.11;98070.19;1703816;82;21268;-65
2021/11/02 09:49:19;;;;;;;64.22;44.53;;;;;;;6.18;84.07;98072.48;1658975;84;20925;-65
2021/11/02 09:52:04;;;;;;;55.20;40.43;;;;;;;6.14;84.24;98066.28;1711102;82;21399;-65
2021/11/02 09:55:01;;;;;;;45.65;32.65;;;;;;;6.14;84.34;98061.09;1708353;83;21502;-65
2021/11/02 09:58:04;;;;;;;48.45;33.95;;;;;;;6.15;84.36;98065.34;1701554;83;20950;-65
2021/11/02 10:00:47;;;;;;;47.43;32.98;;;;;;;6.13;84.33;98062.00;1709845;83;21180;-64
2021/11/02 10:03:48;;;;;;;50.17;34.20;;;;;;;6.14;84.46;98058.50;1708226;83;20992;-65
2021/11/02 10:06:45;;;;;;;47.20;33.67;;;;;;;6.18;84.51;98056.10;1708045;83;21421;-65
2021/11/02 10:09:34;;;;;;;49.93;34.33;;;;;;;6.19;84.51;98059.06;1701217;83;21008;-65
2021/11/02 10:12:20;;;;;;;47.40;35.05;;;;;;;6.22;84.59;98056.33;1701681;83;20918;-64
2021/11/02 10:15:30;;;;;;;49.18;32.88;;;;;;;6.23;84.56;98059.28;1704357;83;21074;-65
2021/11/02 10:18:34;;;;;;;62.53;35.05;;;;;;;6.25;84.63;98057.45;1640562;86;20900;-65
2021/11/02 10:21:12;;;;;;;55.98;36.00;;;;;;;6.24;84.72;98053.16;1640222;86;21022;-64
2021/11/02 10:24:13;;;;;;;55.73;34.67;;;;;;;6.23;84.75;98056.22;1640608;86;21061;-65
2021/11/02 10:27:07;;;;;;;56.70;35.68;;;;;;;6.25;84.84;98056.15;1644200;86;21062;-64
2021/11/02 10:30:01;;;;;;;59.60;35.98;;;;;;;6.27;84.85;98050.39;1638323;86;21006;-65
2021/11/02 10:32:30;;;;;;;52.88;35.33;;;;;;;6.29;84.88;98049.86;1641222;86;20903;-65
2021/11/02 10:35:11;;;;;;;58.48;34.55;;;;;;;6.30;84.88;98048.09;1629904;86;20985;-65
2021/11/02 10:38:06;;;;;;;56.50;34.83;;;;;;;6.30;84.87;98054.58;1626200;86;21030;-65
2021/11/02 10:40:51;;;;;;;49.18;33.45;;;;;;;6.26;84.87;98043.09;1629375;86;21758;-65
2021/11/02 10:43:49;;;;;;;59.38;37.50;;;;;;;6.25;85.02;98041.42;1629132;86;21058;-65
2021/11/02 10:46:16;;;;;;;87.35;55.75;;;;;;;6.22;84.93;98039.48;1627856;86;21112;-66
2021/11/02 10:48:47;;;;;;;106.40;70.67;;;;;;;6.18;85.08;98034.08;1661177;82;21030;-66
2021/11/02 10:51:45;;;;;;;58.52;41.20;;;;;;;6.17;85.17;98035.01;1704052;82;21010;-65
2021/11/02 10:54:28;;;;;;;74.77;48.45;;;;;;;6.15;85.21;98026.48;1705072;83;20967;-66
2021/11/02 10:57:33;;;;;;;57.38;40.12;;;;;;;6.15;85.29;98024.72;1725126;82;21030;-66
2021/11/02 11:00:07;;;;;;;58.15;36.40;;;;;;;6.13;85.30;98025.25;1718894;82;20938;-66
2021/11/02 11:02:37;;;;;;;49.95;35.28;;;;;;;6.14;85.37;98019.64;1718325;82;20936;-66
2021/11/02 11:05:07;;;;;;;49.27;34.95;;;;;;;6.12;85.41;98019.70;1728146;82;20921;-67
2021/11/02 11:07:38;;;;;;;47.45;35.48;;;;;;;6.11;85.56;98025.00;1723388;82;21005;-67
2021/11/02 11:10:10;;;;;;;51.40;37.55;;;;;;;6.08;85.55;98030.32;1721112;82;20890;-66
2021/11/02 11:12:41;;;;;;;52.58;36.77;;;;;;;6.01;85.71;98029.38;1723670;82;20988;-67
2021/11/02 11:15:08;;;;;;;49.48;36.20;;;;;;;5.95;85.70;98023.24;1724324;82;21095;-67
2021/11/02 11:17:36;;;;;;;52.48;38.75;;;;;;;5.90;85.73;98023.92;1722727;82;21012;-66
2021/11/02 11:20:17;;;;;;;52.17;38.75;;;;;;;5.87;85.83;98025.39;1721792;82;20946;-66
2021/11/02 11:22:51;;;;;;;63.23;37.78;;;;;;;5.85;85.82;98022.04;1712350;82;21062;-67
2021/11/02 11:25:29;;;;;;;54.35;37.28;;;;;;;5.80;85.82;98021.48;1693368;83;20931;-66
2021/11/02 11:28:05;;;;;;;49.23;36.50;;;;;;;5.79;85.92;98027.56;1725388;82;20925;-67
2021/11/02 11:30:38;;;;;;;45.75;35.17;;;;;;;5.78;86.06;98027.20;1727073;82;20873;-66
2021/11/02 11:33:15;;;;;;;51.50;34.90;;;;;;;5.76;86.02;98023.38;1721208;82;20974;-67
2021/11/02 11:35:43;;;;;;;;;;;;;;;5.78;86.06;98020.72;1725890;82;21857;-66
2021/11/02 11:38:13;;;;;;;47.95;34.80;;;;;;;5.81;86.20;98019.26;1727112;82;20210;-66
2021/11/02 11:40:43;;;;;;;46.70;33.38;;;;;;;5.82;86.20;98009.26;1698994;82;21517;-66
2021/11/02 11:43:14;;;;;;;51.13;35.00;;;;;;;5.82;86.19;98010.55;1722858;82;20869;-57
2021/11/02 11:45:46;;;;;;;49.18;34.20;;;;;;;5.83;86.24;98016.12;1722388;82;21092;-63
2021/11/02 11:48:21;;;;;;;52.38;36.95;;;;;;;5.83;86.34;98003.18;1690171;83;21084;-62
2021/11/02 11:50:45;;;;;;;49.55;35.65;;;;;;;5.82;86.28;98010.55;1658550;85;20940;-62
2021/11/02 11:53:18;;;;;;;49.00;34.85;;;;;;;5.82;86.39;98009.26;1720954;82;20950;-62
2021/11/02 11:55:49;;;;;;;47.83;37.28;;;;;;;5.84;86.48;98007.43;1721679;82;20993;-62
2021/11/02 11:58:24;;;;;;;48.63;34.90;;;;;;;5.81;86.50;98014.08;1698956;82;20953;-62
2021/11/02 12:01:17;;;;;;;43.33;33.92;;;;;;;5.81;86.59;98002.42;1716855;82;21136;-62
2021/11/02 12:04:18;;;;;;;49.98;36.98;;;;;;;5.80;86.64;98000.30;1719962;82;20948;-62
2021/11/02 12:07:11;;;;;;;46.88;36.10;;;;;;;5.86;86.75;98007.36;1724061;82;20967;-62
2021/11/02 12:09:44;;;;;;;47.27;34.33;;;;;;;5.88;86.77;98006.36;1692854;83;20980;-62
2021/11/02 12:12:12;;;;;;;51.60;37.73;;;;;;;5.91;86.88;98004.89;1695160;83;21149;-62
2021/11/02 12:14:54;;;;;;;71.75;53.13;;;;;;;5.91;86.86;98003.59;1690884;83;21006;-62
2021/11/02 12:17:28;;;;;;;61.92;45.23;;;;;;;5.93;86.93;98001.77;1686108;83;20974;-62
2021/11/02 12:20:11;;;;;;;49.42;37.10;;;;;;;5.95;86.94;97998.63;1686720;83;21068;-62
2021/11/02 12:22:51;;;;;;;72.15;54.35;;;;;;;5.96;86.89;98000.76;1689977;83;21045;-62
2021/11/02 12:25:35;;;;;;;79.45;58.58;;;;;;;5.98;86.94;97999.75;1691800;83;21507;-62
2021/11/02 12:27:58;;;;;;;52.78;37.28;;;;;;;6.02;86.97;98001.27;1692930;83;21061;-62
2021/11/02 12:30:25;;;;;;;;;;;;;;;6.04;87.15;97999.41;1694410;83;21468;-62
2021/11/02 12:32:56;;;;;;;45.63;32.63;;;;;;;6.03;86.99;98008.11;1693099;84;20483;-62
2021/11/02 12:35:41;;;;;;;48.78;34.35;;;;;;;6.03;87.05;98013.29;1690668;83;20938;-63
2021/11/02 12:38:07;;;;;;;57.17;37.90;;;;;;;6.04;87.12;98003.75;1688355;83;20996;-62
2021/11/02 12:40:43;;;;;;;72.75;56.28;;;;;;;6.05;87.10;98001.09;1665037;83;21082;-62
2021/11/02 12:43:28;;;;;;;254.90;150.00;;;;;;;6.07;87.10;98001.45;1695059;82;20950;-62
2021/11/02 12:45:59;;;;;;;176.12;92.80;;;;;;;6.09;87.09;98006.09;1715530;82;20887;-62
2021/11/02 12:48:29;;;;;;;191.55;110.42;;;;;;;6.04;87.10;98008.47;1716439;82;20945;-63
2021/11/02 12:50:58;;;;;;;164.77;107.55;;;;;;;6.04;87.18;98013.66;1720531;82;20986;-63
2021/11/02 12:53:26;;;;;;;126.67;86.02;;;;;;;6.02;87.20;98001.27;1721089;82;21485;-63
2021/11/02 12:55:55;;;;;;;74.05;48.45;;;;;;;5.99;87.21;98001.44;1698868;83;20903;-62
2021/11/02 12:58:24;;;;;;;47.03;36.40;;;;;;;5.99;87.32;98006.63;1702993;83;21327;-63
2021/11/02 13:00:58;;;;;;;59.18;47.05;;;;;;;5.99;87.41;98007.92;1702072;83;20954;-62
2021/11/02 13:03:34;;;;;;;50.17;37.90;;;;;;;5.97;87.37;98011.05;1701831;83;21441;-62
2021/11/02 13:06:08;;;;;;;48.68;36.65;;;;;;;5.98;87.37;98009.29;1701128;83;21032;-62
2021/11/02 13:08:58;;;;;;;54.23;37.85;;;;;;;5.99;87.49;98011.81;1708504;83;20891;-62
2021/11/02 13:11:26;;;;;;;52.85;39.50;;;;;;;5.99;87.43;98010.51;1705374;83;20957;-62
2021/11/02 13:14:07;;;;;;;53.78;40.08;;;;;;;5.98;87.50;98012.70;1711126;82;20945;-62
2021/11/02 13:16:57;;;;;;;55.10;40.52;;;;;;;5.98;87.53;98015.30;1705349;83;20903;-62
2021/11/02 13:19:42;;;;;;;56.02;44.60;;;;;;;5.98;87.68;98015.30;1698564;83;21164;-62
2021/11/02 13:22:20;;;;;;;64.15;45.95;;;;;;;5.97;87.66;98016.23;1704647;82;20949;-62
2021/11/02 13:25:11;;;;;;;60.48;44.67;;;;;;;5.99;87.70;98011.81;1703834;83;20931;-63
2021/11/02 13:27:46;;;;;;;64.90;44.90;;;;;;;6.02;87.79;98019.41;1709773;82;20957;-62
2021/11/02 13:30:42;;;;;;;59.27;43.90;;;;;;;6.03;87.80;98015.88;1706417;83;20961;-62
2021/11/02 13:33:20;;;;;;;67.80;49.25;;;;;;;6.04;87.83;98008.47;1706472;83;21062;-62
2021/11/02 13:36:04;;;;;;;57.48;43.85;;;;;;;6.10;87.94;98016.83;1702589;83;20911;-63
2021/11/02 13:38:42;;;;;;;57.05;40.63;;;;;;;6.10;87.93;98019.42;1710691;82;20959;-62
2021/11/02 13:41:25;;;;;;;53.25;38.08;;;;;;;6.10;88.00;98024.13;1706824;82;20918;-63
2021/11/02 13:44:05;;;;;;;54.30;38.70;;;;;;;6.11;87.99;98022.41;1703557;82;20927;-62
2021/11/02 13:46:39;;;;;;;59.98;39.50;;;;;;;6.13;88.03;98024.42;1702793;83;21755;-62
2021/11/02 13:49:09;;;;;;;58.83;40.28;;;;;;;6.11;88.02;98027.59;1700778;83;21501;-63
2021/11/02 13:51:37;;;;;;;55.40;38.38;;;;;;;6.11;88.06;98023.23;1705307;82;20939;-62
2021/11/02 13:54:07;;;;;;;57.08;37.25;;;;;;;6.11;88.09;98025.00;1704608;82;20923;-63
2021/11/02 13:56:37;;;;;;;52.20;36.15;;;;;;;6.12;88.12;98018.87;1703467;82;21482;-63
2021/11/02 13:59:06;;;;;;;54.35;37.33;;;;;;;6.13;88.24;98023.12;1717980;82;21213;-63
2021/11/02 14:01:50;;;;;;;52.55;37.03;;;;;;;6.14;88.25;98020.93;1715788;82;21524;-63
2021/11/02 14:04:34;;;;;;;53.40;40.10;;;;;;;6.15;88.22;98023.89;1694962;83;21006;-63
2021/11/02 14:07:16;;;;;;;55.78;44.00;;;;;;;6.15;88.30;98017.41;1690255;83;21476;-63
2021/11/02 14:09:53;;;;;;;77.10;60.70;;;;;;;6.17;88.37;98015.58;1690530;83;20977;-63
2021/11/02 14:12:32;;;;;;;59.85;46.73;;;;;;;6.21;88.39;98010.58;1712739;82;21909;-64
2021/11/02 14:15:15;;;;;;;96.55;72.95;;;;;;;6.21;88.43;98007.98;1714936;82;20986;-63
2021/11/02 14:17:45;;;;;;;107.12;84.92;;;;;;;6.23;88.51;98010.03;1716346;82;21473;-63
2021/11/02 14:20:15;;;;;;;82.70;65.42;;;;;;;6.25;88.55;98014.68;1710508;82;21369;-63
2021/11/02 14:22:48;;;;;;;97.15;73.15;;;;;;;6.29;88.58;98014.86;1709235;82;20980;-63
2021/11/02 14:25:20;;;;;;;94.92;70.50;;;;;;;6.32;88.60;98009.97;1716901;82;21028;-63
2021/11/02 14:27:53;;;;;;;75.85;56.98;;;;;;;6.30;88.58;98007.45;1720779;82;20937;-63
2021/11/02 14:30:35;;;;;;;98.62;72.25;;;;;;;6.29;88.66;98005.80;1714471;82;21565;-63
2021/11/02 14:33:06;;;;;;;61.53;41.68;;;;;;;6.29;88.67;98005.80;1712176;82;20954;-63
2021/11/02 14:35:53;;;;;;;50.35;35.78;;;;;;;6.29;88.72;97995.42;1718848;82;21897;-63
2021/11/02 14:38:28;;;;;;;53.38;34.50;;;;;;;6.30;88.76;97997.08;1712800;82;20994;-63
2021/11/02 14:41:00;;;;;;;53.05;35.63;;;;;;;6.30;88.83;97994.49;1694764;82;21063;-64
2021/11/02 14:43:32;;;;;;;48.35;34.00;;;;;;;6.27;88.95;97994.67;1714082;82;20938;-63
2021/11/02 14:46:09;;;;;;;47.83;34.48;;;;;;;6.25;88.90;98004.31;1713572;82;20985;-64
2021/11/02 14:48:50;;;;;;;51.80;34.78;;;;;;;6.24;88.89;98012.52;1706558;82;21000;-63
2021/11/02 14:51:22;;;;;;;50.28;34.95;;;;;;;6.25;88.92;98015.98;1711334;82;21029;-64
2021/11/02 14:53:49;;;;;;;57.17;35.68;;;;;;;6.25;88.97;98009.50;1721666;82;21358;-63
2021/11/02 14:56:28;;;;;;;56.80;36.93;;;;;;;6.24;88.89;98016.88;1716141;82;20962;-64
2021/11/02 14:59:02;;;;;;;82.67;45.48;;;;;;;6.21;88.99;98018.35;1719507;82;21540;-64
2021/11/02 15:01:43;;;;;;;58.15;36.65;;;;;;;6.17;89.05;98016.87;1727672;82;20909;-64
2021/11/02 15:04:20;;;;;;;56.18;35.95;;;;;;;6.17;89.12;98019.46;1719856;82;21101;-63
2021/11/02 15:07:00;;;;;;;51.15;34.95;;;;;;;6.16;89.28;98016.48;1721700;82;20963;-61
2021/11/02 15:09:32;;;;;;;54.23;36.20;;;;;;;6.12;89.29;98011.94;1691404;83;21493;-61
2021/11/02 15:11:59;;;;;;;67.10;46.00;;;;;;;6.09;89.36;98024.23;1719675;82;20985;-63
2021/11/02 15:14:35;;;;;;;67.78;42.58;;;;;;;6.07;89.28;98026.07;1721696;82;20950;-63
2021/11/02 15:17:09;;;;;;;68.47;45.95;;;;;;;6.07;89.39;98026.07;1669892;83;21915;-62
2021/11/02 15:19:38;;;;;;;58.15;39.78;;;;;;;6.03;89.31;98022.36;1724506;82;21019;-62
2021/11/02 15:22:13;;;;;;;145.02;79.37;;;;;;;6.03;89.32;98028.84;1720188;82;21081;-62
2021/11/02 15:24:52;;;;;;;174.75;90.30;;;;;;;6.02;89.36;98020.70;1719531;82;20879;-63
2021/11/02 15:27:28;;;;;;;171.37;88.30;;;;;;;6.01;89.42;98028.08;1726576;82;20995;-62
2021/11/02 15:30:03;;;;;;;265.73;123.10;;;;;;;6.02;89.40;98031.50;1719599;82;21728;-62
2021/11/02 15:32:44;;;;;;;193.13;89.90;;;;;;;6.02;89.45;98032.36;1725503;82;21514;-63
2021/11/02 15:35:15;;;;;;;201.10;94.03;;;;;;;6.03;89.49;98035.78;1723459;82;21000;-63
2021/11/02 15:37:50;;;;;;;127.97;63.63;;;;;;;6.03;89.51;98027.54;1723324;82;21494;-62
2021/11/02 15:40:25;;;;;;;90.17;49.53;;;;;;;6.04;89.52;98021.42;1717243;82;21021;-63
2021/11/02 15:42:58;;;;;;;67.70;43.98;;;;;;;6.02;89.53;98024.59;1720856;82;21032;-62
2021/11/02 15:45:39;;;;;;;192.55;84.87;;;;;;;6.02;89.60;98019.84;1689234;83;20974;-63
2021/11/02 15:48:11;;;;;;;101.97;54.38;;;;;;;6.00;89.71;98021.23;1720922;82;21468;-62
2021/11/02 15:50:52;;;;;;;132.55;68.75;;;;;;;6.00;89.74;98021.23;1723952;82;20906;-63
2021/11/02 15:53:26;;;;;;;155.52;83.33;;;;;;;6.00;89.86;98022.53;1680318;83;20930;-63
2021/11/02 15:56:02;;;;;;;108.07;60.90;;;;;;;6.02;89.80;98031.50;1720475;82;21065;-63
2021/11/02 15:58:29;;;;;;;117.67;66.33;;;;;;;6.02;89.81;98034.95;1682873;83;21506;-63
2021/11/02 16:00:56;;;;;;;72.65;48.55;;;;;;;6.04;89.85;98035.67;1708067;82;21086;-63
2021/11/02 16:03:35;;;;;;;92.40;57.43;;;;;;;6.04;89.86;98031.79;1704541;82;20971;-63
2021/11/02 16:06:11;;;;;;;105.20;59.23;;;;;;;6.04;90.04;98027.91;1689287;83;21081;-62
2021/11/02 16:08:37;;;;;;;84.20;50.50;;;;;;;6.03;89.96;98036.61;1706634;82;21049;-63
2021/11/02 16:11:08;;;;;;;141.97;80.07;;;;;;;6.04;90.02;98038.27;1708438;83;20921;-63
2021/11/02 16:13:35;;;;;;;166.40;85.60;;;;;;;6.03;90.07;98034.02;1713150;82;21477;-63
2021/11/02 16:16:06;;;;;;;146.60;76.70;;;;;;;6.05;90.13;98042.55;1683767;84;21491;-63
2021/11/02 16:18:37;;;;;;;201.75;95.62;;;;;;;6.07;90.13;98041.62;1677860;84;20921;-63
2021/11/02 16:21:07;;;;;;;148.75;87.25;;;;;;;6.08;90.12;98041.55;1677678;84;21034;-63
2021/11/02 16:23:50;;;;;;;125.07;75.45;;;;;;;6.07;90.11;98043.74;1682454;84;20982;-63
2021/11/02 16:26:22;;;;;;;124.22;69.97;;;;;;;6.08;90.14;98049.31;1688518;84;21022;-63
2021/11/02 16:28:49;;;;;;;317.20;186.80;;;;;;;6.09;90.17;98047.55;1676906;84;20982;-63
2021/11/02 16:31:25;;;;;;;;;;;;;;;6.12;90.23;98048.68;1682276;84;21630;-63
2021/11/02 16:33:52;;;;;;;119.47;73.05;;;;;;;6.13;90.22;98049.05;1708954;83;21053;-63
2021/11/02 16:36:32;;;;;;;189.37;102.95;;;;;;;6.14;90.25;98048.14;1688348;82;24848;-63
2021/11/02 16:39:02;;;;;;;223.65;117.67;;;;;;;6.14;90.25;98042.49;1691889;83;21140;-63
2021/11/02 16:41:32;;;;;;;291.17;145.12;;;;;;;6.14;90.36;98040.37;1679977;84;20992;-63
2021/11/02 16:44:08;;;;;;;261.62;127.30;;;;;;;6.14;90.31;98048.14;1705553;82;21061;-63
2021/11/02 16:46:43;;;;;;;225.25;104.15;;;;;;;6.15;90.38;98051.09;1706413;82;21080;-63
2021/11/02 16:49:25;;;;;;;365.30;147.37;;;;;;;6.15;90.37;98052.39;1704828;82;21001;-63
2021/11/02 16:52:04;;;;;;;318.63;122.00;;;;;;;6.15;90.38;98051.09;1701231;83;20957;-63